.
WxDataArchive / Data Records for 2014-01-30
2014-01-29 January 2014 2014-01-31

Data Records for Thursday, 30 January 2014

Time	Temp	Chill	HIndex	Humid	Dewpt	 Wind 	HiWind	WindDir	Rain 	Barom 
-----	----	-----	------	-----	-----	------	------	-------	-----	----- 
00:00	14.3	14.3	14.3	57	1.9	0	2	248	0.00	30.213 
00:05	14.3	14.3	14.3	57	1.9	0	2	248	0.00	30.213 
00:10	14.1	14.1	14.1	57	1.7	0	1	248	0.00	30.213 
00:15	14.0	14.0	14.0	57	1.6	0	1	248	0.00	30.201 
00:20	13.6	13.6	13.6	58	1.6	0	1	248	0.00	30.201 
00:25	13.5	13.5	13.5	58	1.5	0	1	248	0.00	30.201 
00:30	13.1	13.1	13.1	58	1.1	0	1	248	0.00	30.202 
00:35	13.1	13.1	13.1	58	1.1	0	1	248	0.00	30.202 
00:40	12.9	12.9	12.9	58	0.9	0	1	248	0.00	30.202 
00:45	12.8	12.8	12.8	59	1.2	0	1	248	0.00	30.198 
00:50	12.8	12.8	12.8	59	1.2	0	0	---	0.00	30.198 
00:55	12.6	12.6	12.6	59	1.0	0	1	248	0.00	30.198 
01:00	12.6	12.6	12.6	59	1.0	0	3	248	0.00	30.188 
01:05	12.6	12.6	12.6	59	1.0	0	3	112	0.00	30.188 
01:10	12.6	12.6	12.6	59	1.0	0	1	112	0.00	30.188 
01:15	12.6	12.6	12.6	59	1.0	0	1	112	0.00	30.184 
01:20	12.6	12.6	12.6	58	0.7	0	1	112	0.00	30.184 
01:25	12.6	12.6	12.6	58	0.7	0	2	90	0.00	30.184 
01:30	12.6	12.6	12.6	58	0.7	0	1	90	0.00	30.183 
01:35	12.8	12.8	12.8	58	0.8	0	1	90	0.00	30.183 
01:40	12.8	12.8	12.8	58	0.8	0	2	90	0.00	30.183 
01:45	12.6	12.6	12.6	58	0.7	0	2	90	0.00	30.180 
01:50	12.6	12.6	12.6	58	0.7	0	2	90	0.00	30.180 
01:55	12.6	12.6	12.6	58	0.7	0	1	90	0.00	30.180 
02:00	12.4	12.4	12.4	58	0.5	0	1	90	0.00	30.174 
02:05	12.3	12.3	12.3	58	0.4	0	1	90	0.00	30.174 
02:10	12.3	12.3	12.3	58	0.4	0	2	90	0.00	30.174 
02:15	12.1	12.1	12.1	58	0.2	0	1	90	0.00	30.169 
02:20	11.9	11.9	11.9	58	0.0	0	1	90	0.00	30.169 
02:25	11.7	11.7	11.7	58	-0.2	0	1	90	0.00	30.169 
02:30	11.6	11.6	11.6	58	-0.3	0	1	90	0.00	30.170 
02:35	11.6	11.6	11.6	58	-0.3	0	1	90	0.00	30.170 
02:40	11.6	11.6	11.6	59	0.1	1	4	90	0.00	30.170 
02:45	11.6	11.6	11.6	58	-0.3	0	3	90	0.00	30.165 
02:50	11.6	11.6	11.6	58	-0.3	0	1	68	0.00	30.165 
02:55	11.6	11.6	11.6	58	-0.3	0	1	68	0.00	30.165 
03:00	11.6	11.6	11.6	58	-0.3	0	2	68	0.00	30.163 
03:05	11.6	11.6	11.6	58	-0.3	0	3	112	0.00	30.163 
03:10	11.7	11.7	11.7	58	-0.2	0	5	112	0.00	30.163 
03:15	11.7	11.7	11.7	58	-0.2	0	1	90	0.00	30.164 
03:20	11.7	11.7	11.7	58	-0.2	0	2	45	0.00	30.164 
03:25	11.6	11.6	11.6	58	-0.3	0	2	45	0.00	30.164 
03:30	11.6	11.6	11.6	58	-0.3	0	1	45	0.00	30.169 
03:35	11.7	11.7	11.7	58	-0.2	0	1	45	0.00	30.169 
03:40	11.7	11.7	11.7	58	-0.2	0	2	45	0.00	30.169 
03:45	11.7	11.7	11.7	58	-0.2	0	5	90	0.00	30.169 
03:50	11.7	11.7	11.7	58	-0.2	0	3	90	0.00	30.169 
03:55	11.6	11.6	11.6	58	-0.3	0	1	112	0.00	30.169 
04:00	11.4	11.4	11.4	58	-0.5	0	1	112	0.00	30.170 
04:05	11.2	11.2	11.2	58	-0.7	0	1	112	0.00	30.170 
04:10	11.1	11.1	11.1	58	-0.8	0	1	112	0.00	30.170 
04:15	11.1	11.1	11.1	59	-0.4	0	2	112	0.00	30.169 
04:20	11.1	11.1	11.1	58	-0.8	0	2	112	0.00	30.169 
04:25	10.9	10.9	10.9	59	-0.6	0	1	112	0.00	30.169 
04:30	10.7	10.7	10.7	59	-0.8	0	1	112	0.00	30.169 
04:35	10.5	10.5	10.5	59	-1.0	0	1	112	0.00	30.169 
04:40	10.4	10.4	10.4	59	-1.1	0	0	---	0.00	30.169 
04:45	10.0	10.0	10.0	60	-1.1	0	0	---	0.00	30.166 
04:50	10.0	10.0	10.0	60	-1.1	0	0	---	0.00	30.166 
04:55	9.7	9.7	9.7	60	-1.4	0	0	---	0.00	30.166 
05:00	9.5	9.5	9.5	60	-1.5	0	0	---	0.00	30.168 
05:05	9.3	9.3	9.3	61	-1.4	0	1	112	0.00	30.168 
05:10	9.2	9.2	9.2	61	-1.5	0	0	---	0.00	30.168 
05:15	9.2	9.2	9.2	61	-1.5	0	1	112	0.00	30.167 
05:20	9.0	9.0	9.0	62	-1.3	0	1	112	0.00	30.167 
05:25	9.2	9.2	9.2	62	-1.1	0	1	112	0.00	30.167 
05:30	9.3	9.3	9.3	62	-1.0	0	1	112	0.00	30.171 
05:35	9.7	9.7	9.7	62	-0.7	0	2	112	0.00	30.171 
05:40	10.0	10.0	10.0	61	-0.7	0	3	112	0.00	30.171 
05:45	10.2	10.2	10.2	61	-0.5	0	4	112	0.00	30.167 
05:50	10.5	10.5	10.5	60	-0.6	1	3	112	0.00	30.167 
05:55	10.7	10.7	10.7	60	-0.4	0	2	112	0.00	30.167 
06:00	10.7	10.7	10.7	59	-0.8	0	2	112	0.00	30.154 
06:05	10.9	10.9	10.9	59	-0.6	1	3	112	0.00	30.154 
06:10	11.1	11.1	11.1	59	-0.4	0	3	112	0.00	30.154 
06:15	11.2	11.2	11.2	59	-0.3	0	2	90	0.00	30.153 
06:20	11.2	11.2	11.2	58	-0.7	0	1	90	0.00	30.153 
06:25	11.4	11.4	11.4	58	-0.5	0	2	68	0.00	30.153 
06:30	11.6	11.6	11.6	58	-0.3	1	3	45	0.00	30.144 
06:35	11.7	11.7	11.7	58	-0.2	0	1	45	0.00	30.144 
06:40	11.9	11.9	11.9	58	0.0	1	2	45	0.00	30.144 
06:45	12.1	12.1	12.1	58	0.2	1	3	45	0.00	30.139 
06:50	12.3	12.3	12.3	57	0.0	0	2	90	0.00	30.139 
06:55	12.3	12.3	12.3	57	0.0	0	2	68	0.00	30.139 
07:00	12.4	12.4	12.4	57	0.1	0	3	68	0.00	30.146 
07:05	12.6	12.6	12.6	57	0.3	0	3	338	0.00	30.146 
07:10	12.8	12.8	12.8	57	0.5	0	2	248	0.00	30.146 
07:15	12.8	12.8	12.8	57	0.5	0	3	112	0.00	30.148 
07:20	12.6	12.6	12.6	57	0.3	0	2	112	0.00	30.148 
07:25	12.6	12.6	12.6	57	0.3	0	1	112	0.00	30.148 
07:30	12.4	12.4	12.4	57	0.1	0	2	112	0.00	30.145 
07:35	12.4	12.4	12.4	57	0.1	1	3	112	0.00	30.145 
07:40	12.6	12.6	12.6	57	0.3	0	2	112	0.00	30.145 
07:45	12.4	12.4	12.4	57	0.1	0	2	112	0.00	30.145 
07:50	12.4	12.4	12.4	57	0.1	0	3	112	0.00	30.145 
07:55	12.4	12.4	12.4	57	0.1	0	3	112	0.00	30.145 
08:00	12.4	12.4	12.4	57	0.1	0	2	112	0.00	30.149 
08:05	12.6	12.6	12.6	57	0.3	0	2	112	0.00	30.149 
08:10	12.8	12.8	12.8	57	0.5	0	1	112	0.00	30.149 
08:15	12.9	12.9	12.9	56	0.2	0	2	292	0.00	30.149 
08:20	13.3	13.3	13.3	56	0.6	0	2	292	0.00	30.149 
08:25	13.5	13.5	13.5	56	0.8	1	5	292	0.00	30.149 
08:30	14.0	14.0	14.0	55	0.8	0	2	112	0.00	30.149 
08:35	14.6	14.6	14.6	54	1.0	2	6	90	0.00	30.149 
08:40	15.1	15.1	15.1	53	1.1	1	3	90	0.00	30.149 
08:45	15.4	15.4	15.4	53	1.4	1	6	135	0.00	30.140 
08:50	15.6	15.6	15.6	53	1.6	1	5	68	0.00	30.140 
08:55	15.6	15.6	15.6	53	1.6	1	4	68	0.00	30.140 
09:00	16.1	16.1	16.1	52	1.6	1	4	248	0.00	30.142 
09:05	16.5	16.5	16.5	51	1.6	1	4	68	0.00	30.142 
09:10	16.9	16.9	16.9	51	1.9	1	3	292	0.00	30.142 
09:15	17.0	17.0	17.0	51	2.0	1	4	22	0.00	30.136 
09:20	17.2	17.2	17.2	51	2.2	1	5	68	0.00	30.136 
09:25	17.3	17.3	17.3	50	1.9	1	6	248	0.00	30.136 
09:30	17.5	17.5	17.5	51	2.5	2	10	90	0.00	30.118 
09:35	17.5	17.5	17.5	51	2.5	2	10	90	0.00	30.118 
09:40	17.5	17.5	17.5	50	2.1	3	10	90	0.00	30.118 
09:45	17.3	17.3	17.3	51	2.3	2	5	68	0.00	30.106 
09:50	17.3	17.3	17.3	51	2.3	1	5	45	0.00	30.106 
09:55	17.5	17.5	17.5	51	2.5	1	5	68	0.00	30.106 
10:00	17.5	17.5	17.5	51	2.5	2	6	68	0.00	30.109 
10:05	17.5	17.5	17.5	52	2.9	2	6	90	0.00	30.109 
10:10	17.7	17.7	17.7	52	3.1	2	9	112	0.00	30.109 
10:15	17.7	17.7	17.7	52	3.1	1	4	90	0.00	30.111 
10:20	17.8	17.8	17.8	52	3.2	2	6	112	0.00	30.111 
10:25	18.0	18.0	18.0	52	3.4	2	4	90	0.00	30.111 
10:30	18.3	18.3	18.3	53	4.1	1	4	90	0.00	30.101 
10:35	18.3	18.3	18.3	51	3.2	2	5	112	0.00	30.101 
10:40	18.3	18.3	18.3	52	3.7	2	7	68	0.00	30.101 
10:45	18.4	18.4	18.4	51	3.3	2	6	90	0.00	30.087 
10:50	18.8	18.8	18.8	52	4.1	2	9	90	0.00	30.087 
10:55	19.1	19.1	19.1	51	4.0	2	6	90	0.00	30.087 
11:00	19.4	19.4	19.4	51	4.3	1	7	90	0.00	30.088 
11:05	19.9	19.9	19.9	51	4.7	2	9	90	0.00	30.088 
11:10	20.0	20.0	20.0	51	4.8	1	6	45	0.00	30.088 
11:15	20.3	20.3	20.3	51	5.1	2	7	68	0.00	30.082 
11:20	20.6	20.6	20.6	51	5.4	1	5	90	0.00	30.082 
11:25	21.0	21.0	21.0	50	5.3	2	7	90	0.00	30.082 
11:30	21.3	21.3	21.3	50	5.6	2	7	90	0.00	30.053 
11:35	21.4	21.4	21.4	50	5.7	2	5	90	0.00	30.053 
11:40	21.6	21.6	21.6	50	5.9	2	7	68	0.00	30.053 
11:45	21.8	21.8	21.8	49	5.6	3	9	90	0.00	30.038 
11:50	21.8	21.8	21.8	50	6.1	2	6	90	0.00	30.038 
11:55	22.1	22.1	22.1	50	6.3	1	5	90	0.00	30.038 
12:00	22.4	22.4	22.4	49	6.2	2	7	68	0.00	30.040 
12:05	22.4	22.4	22.4	50	6.6	1	5	68	0.00	30.040 
12:10	22.5	22.5	22.5	49	6.3	2	5	90	0.00	30.040 
12:15	22.9	22.9	22.9	50	7.1	1	6	90	0.00	30.035 
12:20	23.0	23.0	23.0	49	6.7	2	7	112	0.00	30.035 
12:25	23.0	23.0	23.0	50	7.2	2	5	90	0.00	30.035 
12:30	23.0	23.0	23.0	50	7.2	2	10	90	0.00	30.013 
12:35	23.2	23.2	23.2	49	6.9	3	9	68	0.00	30.013 
12:40	23.0	17.7	23.0	49	6.7	4	10	90	0.00	30.013 
12:45	23.0	17.7	23.0	49	6.7	4	10	90	0.00	29.987 
12:50	23.2	23.2	23.2	50	7.4	3	10	90	0.00	29.987 
12:55	23.2	23.2	23.2	50	7.4	3	7	90	0.00	29.987 
13:00	23.3	23.3	23.3	50	7.4	3	9	90	0.00	29.971 
13:05	23.3	18.0	23.3	50	7.4	4	11	90	0.00	29.971 
13:10	23.5	23.5	23.5	49	7.2	3	7	112	0.00	29.971 
13:15	23.6	23.6	23.6	50	7.7	2	5	112	0.00	29.969 
13:20	23.9	23.9	23.9	50	8.0	2	5	112	0.00	29.969 
13:25	24.2	24.2	24.2	50	8.3	2	6	45	0.00	29.969 
13:30	24.2	24.2	24.2	49	7.8	3	10	90	0.00	29.956 
13:35	24.2	24.2	24.2	50	8.3	2	9	112	0.00	29.956 
13:40	24.2	24.2	24.2	49	7.8	2	10	68	0.00	29.956 
13:45	24.4	24.4	24.4	48	7.6	3	13	270	0.00	29.950 
13:50	24.4	24.4	24.4	49	8.0	3	9	90	0.00	29.950 
13:55	24.5	19.4	24.5	50	8.6	4	11	90	0.00	29.950 
14:00	24.7	24.7	24.7	49	8.3	3	8	90	0.00	29.938 
14:05	24.8	24.8	24.8	50	8.8	2	7	68	0.00	29.938 
14:10	25.1	25.1	25.1	50	9.1	2	5	68	0.00	29.938 
14:15	25.1	25.1	25.1	50	9.1	3	9	68	0.00	29.920 
14:20	25.1	20.1	25.1	50	9.1	4	10	112	0.00	29.920 
14:25	25.3	25.3	25.3	50	9.3	3	10	90	0.00	29.920 
14:30	25.4	25.4	25.4	50	9.4	3	9	90	0.00	29.905 
14:35	25.4	25.4	25.4	50	9.4	3	9	90	0.00	29.905 
14:40	25.6	20.7	25.6	49	9.1	4	11	90	0.00	29.905 
14:45	25.7	20.8	25.7	49	9.2	4	11	90	0.00	29.886 
14:50	25.7	19.7	25.7	50	9.7	5	16	90	0.00	29.886 
14:55	25.7	19.7	25.7	49	9.2	5	11	90	0.00	29.886 
15:00	25.8	20.9	25.8	49	9.3	4	12	90	0.00	29.873 
15:05	25.8	19.8	25.8	49	9.3	5	17	90	0.00	29.873 
15:10	25.8	25.8	25.8	50	9.8	3	9	90	0.00	29.873 
15:15	26.0	26.0	26.0	49	9.5	3	10	90	0.00	29.856 
15:20	26.1	21.3	26.1	48	9.1	4	13	90	0.00	29.856 
15:25	26.4	26.4	26.4	49	9.9	2	10	45	0.00	29.856 
15:30	26.6	26.6	26.6	49	10.0	1	5	90	0.00	29.859 
15:35	26.7	26.7	26.7	48	9.7	3	9	90	0.00	29.859 
15:40	26.9	26.9	26.9	48	9.9	3	10	68	0.00	29.859 
15:45	26.9	26.9	26.9	48	9.9	3	10	68	0.00	29.844 
15:50	26.9	26.9	26.9	48	9.9	3	14	90	0.00	29.844 
15:55	26.9	26.9	26.9	48	9.9	3	10	90	0.00	29.844 
16:00	26.9	22.2	26.9	48	9.9	4	9	90	0.00	29.828 
16:05	26.9	21.1	26.9	48	9.9	5	12	90	0.00	29.828 
16:10	27.0	22.3	27.0	47	9.5	4	12	90	0.00	29.828 
16:15	27.0	22.3	27.0	47	9.5	4	14	90	0.00	29.819 
16:20	27.0	27.0	27.0	47	9.5	3	10	90	0.00	29.819 
16:25	27.0	27.0	27.0	47	9.5	3	6	90	0.00	29.819 
16:30	27.0	27.0	27.0	47	9.5	3	10	90	0.00	29.824 
16:35	27.0	27.0	27.0	46	9.0	3	11	90	0.00	29.824 
16:40	27.2	27.2	27.2	48	10.1	1	3	90	0.00	29.824 
16:45	27.2	27.2	27.2	48	10.1	1	3	90	0.00	29.842 
16:50	27.3	27.3	27.3	46	9.3	1	6	248	0.00	29.842 
16:55	27.5	27.5	27.5	46	9.5	1	4	248	0.00	29.842 
17:00	27.6	27.6	27.6	45	9.1	2	6	248	0.00	29.859 
17:05	27.6	27.6	27.6	45	9.1	2	6	248	0.00	29.859 
17:10	27.6	27.6	27.6	46	9.6	1	7	68	0.00	29.859 
17:15	27.6	27.6	27.6	46	9.6	1	6	270	0.00	29.860 
17:20	27.6	27.6	27.6	46	9.6	1	6	248	0.00	29.860 
17:25	27.6	27.6	27.6	46	9.6	1	4	225	0.00	29.860 
17:30	27.6	27.6	27.6	46	9.6	1	5	248	0.00	29.861 
17:35	27.6	27.6	27.6	47	10.0	1	4	248	0.00	29.861 
17:40	27.6	27.6	27.6	46	9.6	1	5	248	0.00	29.861 
17:45	27.6	27.6	27.6	46	9.6	1	4	248	0.00	29.867 
17:50	27.6	27.6	27.6	46	9.6	1	5	248	0.00	29.867 
17:55	27.6	27.6	27.6	46	9.6	2	9	270	0.00	29.867 
18:00	27.6	27.6	27.6	46	9.6	1	7	248	0.00	29.870 
18:05	27.8	27.8	27.8	46	9.7	2	9	248	0.00	29.870 
18:10	27.8	27.8	27.8	46	9.7	1	4	248	0.00	29.870 
18:15	27.8	27.8	27.8	47	10.2	1	5	248	0.00	29.880 
18:20	27.8	27.8	27.8	47	10.2	1	4	225	0.00	29.880 
18:25	27.8	27.8	27.8	46	9.7	1	5	225	0.00	29.880 
18:30	27.8	27.8	27.8	47	10.2	1	5	225	0.00	29.888 
18:35	27.8	27.8	27.8	47	10.2	0	2	248	0.00	29.888 
18:40	27.8	27.8	27.8	47	10.2	1	5	248	0.00	29.888 
18:45	27.8	27.8	27.8	47	10.2	1	6	225	0.00	29.904 
18:50	27.8	27.8	27.8	48	10.7	1	3	248	0.00	29.904 
18:55	27.8	27.8	27.8	48	10.7	1	5	248	0.00	29.904 
19:00	27.8	27.8	27.8	53	12.9	1	11	248	0.00	29.906 
19:05	27.6	27.6	27.6	56	14.0	1	5	248	0.00	29.906 
19:10	27.2	27.2	27.2	59	14.8	2	10	248	0.00	29.906 
19:15	26.9	26.9	26.9	60	14.9	1	5	248	0.00	29.908 
19:20	26.9	26.9	26.9	63	16.0	2	9	248	0.00	29.908 
19:25	26.6	26.6	26.6	67	17.1	2	7	225	0.00	29.908 
19:30	26.4	26.4	26.4	70	18.0	3	9	248	0.00	29.912 
19:35	26.1	26.1	26.1	75	19.3	3	10	248	0.00	29.912 
19:40	25.8	25.8	25.8	78	19.9	1	6	248	0.00	29.912 
19:45	25.6	25.6	25.6	81	20.6	2	5	248	0.00	29.912 
19:50	25.3	25.3	25.3	82	20.6	1	4	248	0.00	29.912 
19:55	25.1	25.1	25.1	83	20.7	1	3	270	0.00	29.912 
20:00	25.1	25.1	25.1	84	21.0	1	4	248	0.00	29.908 
20:05	25.1	25.1	25.1	84	21.0	1	4	270	0.00	29.908 
20:10	25.1	25.1	25.1	84	21.0	1	5	248	0.00	29.908 
20:15	25.3	25.3	25.3	85	21.4	1	4	248	0.00	29.905 
20:20	25.4	25.4	25.4	85	21.5	1	4	248	0.00	29.905 
20:25	25.6	25.6	25.6	85	21.7	0	3	248	0.00	29.905 
20:30	25.7	25.7	25.7	85	21.8	0	2	315	0.00	29.906 
20:35	25.7	25.7	25.7	85	21.8	1	3	270	0.00	29.906 
20:40	25.8	25.8	25.8	85	21.9	1	4	248	0.00	29.906 
20:45	26.0	26.0	26.0	86	22.4	0	3	248	0.00	29.906 
20:50	26.0	26.0	26.0	86	22.4	1	4	248	0.00	29.906 
20:55	26.1	26.1	26.1	86	22.5	0	3	248	0.00	29.906 
21:00	26.3	26.3	26.3	86	22.7	1	6	248	0.00	29.905 
21:05	26.4	26.4	26.4	85	22.5	2	9	248	0.00	29.905 
21:10	26.7	26.7	26.7	85	22.8	2	9	248	0.00	29.905 
21:15	26.9	26.9	26.9	85	23.0	1	6	248	0.00	29.903 
21:20	27.2	27.2	27.2	84	23.0	2	6	248	0.00	29.903 
21:25	27.3	27.3	27.3	84	23.1	1	5	248	0.00	29.903 
21:30	27.5	27.5	27.5	84	23.3	2	5	248	0.00	29.902 
21:35	27.6	27.6	27.6	83	23.1	2	6	248	0.00	29.902 
21:40	27.8	27.8	27.8	83	23.3	2	6	248	0.00	29.902 
21:45	27.9	27.9	27.9	82	23.1	2	6	248	0.00	29.898 
21:50	28.1	28.1	28.1	81	23.0	2	5	248	0.00	29.898 
21:55	28.2	28.2	28.2	81	23.1	1	5	248	0.00	29.898 
22:00	28.2	28.2	28.2	80	22.8	1	5	248	0.00	29.898 
22:05	28.4	28.4	28.4	80	23.0	1	5	248	0.00	29.898 
22:10	28.4	28.4	28.4	79	22.7	2	5	248	0.00	29.898 
22:15	28.5	28.5	28.5	78	22.5	1	6	248	0.00	29.897 
22:20	28.7	28.7	28.7	77	22.4	1	4	248	0.00	29.897 
22:25	28.7	28.7	28.7	77	22.4	1	6	225	0.00	29.897 
22:30	28.7	28.7	28.7	76	22.1	1	4	248	0.00	29.897 
22:35	28.8	28.8	28.8	76	22.2	1	6	248	0.00	29.897 
22:40	28.8	28.8	28.8	74	21.6	1	3	248	0.00	29.897 
22:45	28.8	28.8	28.8	73	21.3	1	4	248	0.00	29.898 
22:50	29.0	29.0	29.0	73	21.4	1	4	248	0.00	29.898 
22:55	29.0	29.0	29.0	72	21.1	1	5	248	0.00	29.898 
23:00	29.1	29.1	29.1	71	20.9	1	2	248	0.00	29.896 
23:05	29.1	29.1	29.1	71	20.9	1	5	225	0.00	29.896 
23:10	29.1	29.1	29.1	70	20.6	1	4	225	0.00	29.896 
23:15	29.1	29.1	29.1	70	20.6	0	3	225	0.00	29.905 
23:20	29.3	29.3	29.3	69	20.4	1	3	248	0.00	29.905 
23:25	29.3	29.3	29.3	68	20.1	1	4	248	0.00	29.905 
23:30	29.3	29.3	29.3	67	19.7	1	4	248	0.00	29.898 
23:35	29.3	29.3	29.3	66	19.4	1	5	248	0.00	29.898 
23:40	29.3	29.3	29.3	65	19.0	1	3	248	0.00	29.898 
23:45	29.1	29.1	29.1	65	18.8	1	3	248	0.00	29.897 
23:50	29.1	29.1	29.1	64	18.5	1	4	248	0.00	29.897 
23:55	29.1	29.1	29.1	63	18.1	0	3	248	0.00	29.897 

CoCoRaHS
IN-AL-39
A2 Web Hosting
Creative Commons License
GoDaddy
search engine by freefind advanced

loaded 2018-11-14 03:34:37 • last modified 2010-11-18 10:43:29
Privacy PolicyDisclaimer
• wx.awcolley.com is powered by PmWiki v.2002016 •
• all content (unless otherwise noted) © 2018 A W Colley